sensor_id;sensor_type;location;lat;lon;timestamp;P1;durP1;ratioP1;P2;durP2;ratioP2
68870;SDS011;55906;52.278;6.808;2024-03-06T00:00:49;34.97;;;21.33;;
68870;SDS011;55906;52.278;6.808;2024-03-06T00:03:16;31.52;;;20.15;;
68870;SDS011;55906;52.278;6.808;2024-03-06T00:05:42;35.25;;;19.58;;
68870;SDS011;55906;52.278;6.808;2024-03-06T00:08:10;33.47;;;20.43;;
68870;SDS011;55906;52.278;6.808;2024-03-06T00:10:36;37.53;;;21.40;;
68870;SDS011;55906;52.278;6.808;2024-03-06T00:13:03;36.35;;;19.83;;
68870;SDS011;55906;52.278;6.808;2024-03-06T00:15:32;34.72;;;19.83;;
68870;SDS011;55906;52.278;6.808;2024-03-06T00:17:59;32.30;;;19.02;;
68870;SDS011;55906;52.278;6.808;2024-03-06T00:20:26;35.55;;;20.25;;
68870;SDS011;55906;52.278;6.808;2024-03-06T00:22:53;36.53;;;20.67;;
68870;SDS011;55906;52.278;6.808;2024-03-06T00:25:21;50.28;;;29.05;;
68870;SDS011;55906;52.278;6.808;2024-03-06T00:27:47;37.10;;;21.85;;
68870;SDS011;55906;52.278;6.808;2024-03-06T00:30:14;36.10;;;20.00;;
68870;SDS011;55906;52.278;6.808;2024-03-06T00:32:42;45.90;;;24.20;;
68870;SDS011;55906;52.278;6.808;2024-03-06T00:35:09;40.33;;;23.70;;
68870;SDS011;55906;52.278;6.808;2024-03-06T00:37:37;39.97;;;22.23;;
68870;SDS011;55906;52.278;6.808;2024-03-06T00:40:04;34.60;;;19.23;;
68870;SDS011;55906;52.278;6.808;2024-03-06T00:42:31;35.58;;;19.90;;
68870;SDS011;55906;52.278;6.808;2024-03-06T00:44:58;36.40;;;19.98;;
68870;SDS011;55906;52.278;6.808;2024-03-06T00:47:25;36.08;;;19.48;;
68870;SDS011;55906;52.278;6.808;2024-03-06T00:49:53;40.77;;;22.57;;
68870;SDS011;55906;52.278;6.808;2024-03-06T00:52:20;34.10;;;19.92;;
68870;SDS011;55906;52.278;6.808;2024-03-06T00:54:47;40.88;;;21.85;;
68870;SDS011;55906;52.278;6.808;2024-03-06T00:57:14;39.78;;;22.30;;
68870;SDS011;55906;52.278;6.808;2024-03-06T00:59:41;46.38;;;22.95;;
68870;SDS011;55906;52.278;6.808;2024-03-06T01:02:08;39.30;;;21.07;;
68870;SDS011;55906;52.278;6.808;2024-03-06T01:04:34;37.67;;;21.20;;
68870;SDS011;55906;52.278;6.808;2024-03-06T01:07:03;35.83;;;18.63;;
68870;SDS011;55906;52.278;6.808;2024-03-06T01:09:30;39.25;;;21.70;;
68870;SDS011;55906;52.278;6.808;2024-03-06T01:11:56;36.88;;;21.88;;
68870;SDS011;55906;52.278;6.808;2024-03-06T01:14:23;33.73;;;18.20;;
68870;SDS011;55906;52.278;6.808;2024-03-06T01:16:50;33.67;;;19.17;;
68870;SDS011;55906;52.278;6.808;2024-03-06T01:19:16;45.15;;;23.50;;
68870;SDS011;55906;52.278;6.808;2024-03-06T01:21:43;37.78;;;22.05;;
68870;SDS011;55906;52.278;6.808;2024-03-06T01:24:11;35.37;;;18.97;;
68870;SDS011;55906;52.278;6.808;2024-03-06T01:26:39;32.22;;;18.45;;
68870;SDS011;55906;52.278;6.808;2024-03-06T01:29:06;33.45;;;18.13;;
68870;SDS011;55906;52.278;6.808;2024-03-06T01:31:33;34.28;;;19.73;;
68870;SDS011;55906;52.278;6.808;2024-03-06T01:37:21;33.95;;;18.00;;
68870;SDS011;55906;52.278;6.808;2024-03-06T01:39:49;34.22;;;19.25;;
68870;SDS011;55906;52.278;6.808;2024-03-06T01:42:16;37.50;;;20.67;;
68870;SDS011;55906;52.278;6.808;2024-03-06T01:44:44;35.08;;;18.02;;
68870;SDS011;55906;52.278;6.808;2024-03-06T01:47:11;32.20;;;17.13;;
68870;SDS011;55906;52.278;6.808;2024-03-06T01:49:38;29.63;;;17.30;;
68870;SDS011;55906;52.278;6.808;2024-03-06T01:52:05;30.15;;;16.40;;
68870;SDS011;55906;52.278;6.808;2024-03-06T01:54:32;38.65;;;21.75;;
68870;SDS011;55906;52.278;6.808;2024-03-06T01:57:01;36.78;;;20.17;;
68870;SDS011;55906;52.278;6.808;2024-03-06T01:59:29;39.23;;;19.77;;
68870;SDS011;55906;52.278;6.808;2024-03-06T02:01:56;35.28;;;17.95;;
68870;SDS011;55906;52.278;6.808;2024-03-06T02:04:23;37.42;;;21.30;;
68870;SDS011;55906;52.278;6.808;2024-03-06T02:06:53;39.50;;;21.58;;
68870;SDS011;55906;52.278;6.808;2024-03-06T02:09:20;38.07;;;19.00;;
68870;SDS011;55906;52.278;6.808;2024-03-06T02:11:48;36.78;;;20.25;;
68870;SDS011;55906;52.278;6.808;2024-03-06T02:14:17;37.72;;;20.67;;
68870;SDS011;55906;52.278;6.808;2024-03-06T02:16:43;33.33;;;19.95;;
68870;SDS011;55906;52.278;6.808;2024-03-06T02:19:09;39.33;;;22.37;;
68870;SDS011;55906;52.278;6.808;2024-03-06T02:21:38;38.90;;;21.60;;
68870;SDS011;55906;52.278;6.808;2024-03-06T02:24:04;35.25;;;20.10;;
68870;SDS011;55906;52.278;6.808;2024-03-06T02:26:33;39.45;;;22.10;;
68870;SDS011;55906;52.278;6.808;2024-03-06T02:29:00;35.42;;;19.20;;
68870;SDS011;55906;52.278;6.808;2024-03-06T02:31:27;36.03;;;20.43;;
68870;SDS011;55906;52.278;6.808;2024-03-06T02:33:54;35.72;;;20.20;;
68870;SDS011;55906;52.278;6.808;2024-03-06T02:36:20;43.75;;;22.73;;
68870;SDS011;55906;52.278;6.808;2024-03-06T02:38:49;41.33;;;21.88;;
68870;SDS011;55906;52.278;6.808;2024-03-06T02:41:15;47.63;;;24.10;;
68870;SDS011;55906;52.278;6.808;2024-03-06T02:43:42;39.80;;;21.42;;
68870;SDS011;55906;52.278;6.808;2024-03-06T02:46:09;43.33;;;25.50;;
68870;SDS011;55906;52.278;6.808;2024-03-06T02:48:36;42.90;;;22.08;;
68870;SDS011;55906;52.278;6.808;2024-03-06T02:51:03;48.25;;;24.70;;
68870;SDS011;55906;52.278;6.808;2024-03-06T02:53:30;53.05;;;27.15;;
68870;SDS011;55906;52.278;6.808;2024-03-06T02:55:59;44.20;;;23.42;;
68870;SDS011;55906;52.278;6.808;2024-03-06T02:58:25;42.45;;;21.50;;
68870;SDS011;55906;52.278;6.808;2024-03-06T03:00:55;39.75;;;20.95;;
68870;SDS011;55906;52.278;6.808;2024-03-06T03:03:22;39.35;;;22.15;;
68870;SDS011;55906;52.278;6.808;2024-03-06T03:05:50;41.83;;;21.60;;
68870;SDS011;55906;52.278;6.808;2024-03-06T03:08:16;43.63;;;23.15;;
68870;SDS011;55906;52.278;6.808;2024-03-06T03:10:43;44.77;;;22.07;;
68870;SDS011;55906;52.278;6.808;2024-03-06T03:13:12;34.97;;;18.92;;
68870;SDS011;55906;52.278;6.808;2024-03-06T03:15:39;42.33;;;22.83;;
68870;SDS011;55906;52.278;6.808;2024-03-06T03:18:06;37.08;;;21.13;;
68870;SDS011;55906;52.278;6.808;2024-03-06T03:20:33;39.35;;;21.75;;
68870;SDS011;55906;52.278;6.808;2024-03-06T03:23:01;49.78;;;25.88;;
68870;SDS011;55906;52.278;6.808;2024-03-06T03:25:28;45.17;;;23.42;;
68870;SDS011;55906;52.278;6.808;2024-03-06T03:27:55;43.70;;;21.50;;
68870;SDS011;55906;52.278;6.808;2024-03-06T03:30:23;41.97;;;22.33;;
68870;SDS011;55906;52.278;6.808;2024-03-06T03:32:49;45.38;;;24.25;;
68870;SDS011;55906;52.278;6.808;2024-03-06T03:35:16;44.97;;;23.10;;
68870;SDS011;55906;52.278;6.808;2024-03-06T03:37:49;44.88;;;24.38;;
68870;SDS011;55906;52.278;6.808;2024-03-06T03:40:17;36.67;;;19.65;;
68870;SDS011;55906;52.278;6.808;2024-03-06T03:42:44;45.05;;;21.90;;
68870;SDS011;55906;52.278;6.808;2024-03-06T03:45:11;46.15;;;22.65;;
68870;SDS011;55906;52.278;6.808;2024-03-06T03:47:41;38.70;;;20.05;;
68870;SDS011;55906;52.278;6.808;2024-03-06T03:50:08;45.95;;;22.40;;
68870;SDS011;55906;52.278;6.808;2024-03-06T03:52:36;43.00;;;22.88;;
68870;SDS011;55906;52.278;6.808;2024-03-06T03:55:06;45.67;;;24.95;;
68870;SDS011;55906;52.278;6.808;2024-03-06T03:57:33;41.73;;;22.90;;
68870;SDS011;55906;52.278;6.808;2024-03-06T04:00:00;44.28;;;23.20;;
68870;SDS011;55906;52.278;6.808;2024-03-06T04:02:27;41.20;;;20.33;;
68870;SDS011;55906;52.278;6.808;2024-03-06T04:04:55;58.00;;;27.48;;
68870;SDS011;55906;52.278;6.808;2024-03-06T04:07:22;42.87;;;21.77;;
68870;SDS011;55906;52.278;6.808;2024-03-06T04:09:49;44.53;;;23.23;;
68870;SDS011;55906;52.278;6.808;2024-03-06T04:12:16;49.03;;;25.08;;
68870;SDS011;55906;52.278;6.808;2024-03-06T04:14:42;44.60;;;23.02;;
68870;SDS011;55906;52.278;6.808;2024-03-06T04:17:10;41.17;;;22.70;;
68870;SDS011;55906;52.278;6.808;2024-03-06T04:19:37;43.17;;;23.90;;
68870;SDS011;55906;52.278;6.808;2024-03-06T04:22:05;39.25;;;21.20;;
68870;SDS011;55906;52.278;6.808;2024-03-06T04:24:32;46.20;;;23.30;;
68870;SDS011;55906;52.278;6.808;2024-03-06T04:26:59;38.57;;;21.27;;
68870;SDS011;55906;52.278;6.808;2024-03-06T04:29:25;38.65;;;20.95;;
68870;SDS011;55906;52.278;6.808;2024-03-06T04:31:52;42.30;;;21.08;;
68870;SDS011;55906;52.278;6.808;2024-03-06T04:34:19;40.88;;;21.25;;
68870;SDS011;55906;52.278;6.808;2024-03-06T04:36:48;38.40;;;22.97;;
68870;SDS011;55906;52.278;6.808;2024-03-06T04:39:16;41.35;;;20.15;;
68870;SDS011;55906;52.278;6.808;2024-03-06T04:41:43;45.25;;;23.95;;
68870;SDS011;55906;52.278;6.808;2024-03-06T04:44:10;41.53;;;23.08;;
68870;SDS011;55906;52.278;6.808;2024-03-06T04:46:37;41.20;;;22.52;;
68870;SDS011;55906;52.278;6.808;2024-03-06T04:49:03;44.50;;;22.60;;
68870;SDS011;55906;52.278;6.808;2024-03-06T04:51:30;44.50;;;23.38;;
68870;SDS011;55906;52.278;6.808;2024-03-06T04:53:57;35.38;;;21.17;;
68870;SDS011;55906;52.278;6.808;2024-03-06T04:56:25;41.75;;;20.70;;
68870;SDS011;55906;52.278;6.808;2024-03-06T04:58:52;37.72;;;20.58;;
68870;SDS011;55906;52.278;6.808;2024-03-06T05:01:19;40.35;;;19.77;;
68870;SDS011;55906;52.278;6.808;2024-03-06T05:03:46;43.30;;;20.75;;
68870;SDS011;55906;52.278;6.808;2024-03-06T05:06:14;38.22;;;19.55;;
68870;SDS011;55906;52.278;6.808;2024-03-06T05:08:41;35.47;;;18.70;;
68870;SDS011;55906;52.278;6.808;2024-03-06T05:11:08;36.40;;;18.48;;
68870;SDS011;55906;52.278;6.808;2024-03-06T05:13:36;41.10;;;21.90;;
68870;SDS011;55906;52.278;6.808;2024-03-06T05:16:03;45.80;;;24.47;;
68870;SDS011;55906;52.278;6.808;2024-03-06T05:18:30;44.88;;;23.55;;
68870;SDS011;55906;52.278;6.808;2024-03-06T05:20:59;40.30;;;21.40;;
68870;SDS011;55906;52.278;6.808;2024-03-06T05:23:26;36.08;;;19.73;;
68870;SDS011;55906;52.278;6.808;2024-03-06T05:25:53;40.20;;;21.53;;
68870;SDS011;55906;52.278;6.808;2024-03-06T05:28:19;43.00;;;23.20;;
68870;SDS011;55906;52.278;6.808;2024-03-06T05:30:48;39.25;;;20.65;;
68870;SDS011;55906;52.278;6.808;2024-03-06T05:33:14;53.28;;;25.60;;
68870;SDS011;55906;52.278;6.808;2024-03-06T05:35:41;41.30;;;19.52;;
68870;SDS011;55906;52.278;6.808;2024-03-06T05:38:08;41.30;;;20.58;;
68870;SDS011;55906;52.278;6.808;2024-03-06T05:40:35;51.00;;;24.00;;
68870;SDS011;55906;52.278;6.808;2024-03-06T05:43:04;45.40;;;23.27;;
68870;SDS011;55906;52.278;6.808;2024-03-06T05:45:31;46.30;;;21.55;;
68870;SDS011;55906;52.278;6.808;2024-03-06T05:47:59;41.10;;;21.08;;
68870;SDS011;55906;52.278;6.808;2024-03-06T05:50:26;39.97;;;21.40;;
68870;SDS011;55906;52.278;6.808;2024-03-06T05:52:52;41.13;;;21.90;;
68870;SDS011;55906;52.278;6.808;2024-03-06T05:55:19;38.33;;;21.13;;
68870;SDS011;55906;52.278;6.808;2024-03-06T05:57:46;56.85;;;27.90;;
68870;SDS011;55906;52.278;6.808;2024-03-06T06:00:13;44.15;;;22.60;;
68870;SDS011;55906;52.278;6.808;2024-03-06T06:02:43;38.45;;;19.48;;
68870;SDS011;55906;52.278;6.808;2024-03-06T06:05:12;39.00;;;21.67;;
68870;SDS011;55906;52.278;6.808;2024-03-06T06:07:38;39.60;;;21.48;;
68870;SDS011;55906;52.278;6.808;2024-03-06T06:10:05;37.45;;;20.20;;
68870;SDS011;55906;52.278;6.808;2024-03-06T06:12:35;39.08;;;20.02;;
68870;SDS011;55906;52.278;6.808;2024-03-06T06:15:01;39.10;;;21.67;;
68870;SDS011;55906;52.278;6.808;2024-03-06T06:17:28;36.38;;;20.17;;
68870;SDS011;55906;52.278;6.808;2024-03-06T06:19:55;40.00;;;21.30;;
68870;SDS011;55906;52.278;6.808;2024-03-06T06:22:24;37.30;;;19.80;;
68870;SDS011;55906;52.278;6.808;2024-03-06T06:24:53;38.33;;;21.73;;
68870;SDS011;55906;52.278;6.808;2024-03-06T06:27:20;40.75;;;21.08;;
68870;SDS011;55906;52.278;6.808;2024-03-06T06:29:47;34.83;;;18.83;;
68870;SDS011;55906;52.278;6.808;2024-03-06T06:32:14;32.33;;;18.83;;
68870;SDS011;55906;52.278;6.808;2024-03-06T06:34:41;35.63;;;20.10;;
68870;SDS011;55906;52.278;6.808;2024-03-06T06:37:07;41.85;;;22.33;;
68870;SDS011;55906;52.278;6.808;2024-03-06T06:39:35;36.78;;;20.02;;
68870;SDS011;55906;52.278;6.808;2024-03-06T06:42:02;46.58;;;23.50;;
68870;SDS011;55906;52.278;6.808;2024-03-06T06:44:29;43.75;;;23.83;;
68870;SDS011;55906;52.278;6.808;2024-03-06T06:46:56;44.10;;;23.23;;
68870;SDS011;55906;52.278;6.808;2024-03-06T06:49:23;41.83;;;22.95;;
68870;SDS011;55906;52.278;6.808;2024-03-06T06:51:49;37.08;;;20.48;;
68870;SDS011;55906;52.278;6.808;2024-03-06T06:54:16;37.07;;;21.00;;
68870;SDS011;55906;52.278;6.808;2024-03-06T06:56:44;47.13;;;24.27;;
68870;SDS011;55906;52.278;6.808;2024-03-06T06:59:11;41.30;;;21.73;;
68870;SDS011;55906;52.278;6.808;2024-03-06T07:01:38;46.55;;;24.45;;
68870;SDS011;55906;52.278;6.808;2024-03-06T07:04:05;38.43;;;21.63;;
68870;SDS011;55906;52.278;6.808;2024-03-06T07:06:32;39.20;;;20.20;;
68870;SDS011;55906;52.278;6.808;2024-03-06T07:08:59;39.80;;;22.13;;
68870;SDS011;55906;52.278;6.808;2024-03-06T07:11:26;43.85;;;22.00;;
68870;SDS011;55906;52.278;6.808;2024-03-06T07:13:54;37.00;;;20.10;;
68870;SDS011;55906;52.278;6.808;2024-03-06T07:16:20;35.78;;;20.42;;
68870;SDS011;55906;52.278;6.808;2024-03-06T07:18:48;38.28;;;20.13;;
68870;SDS011;55906;52.278;6.808;2024-03-06T07:21:15;39.05;;;19.63;;
68870;SDS011;55906;52.278;6.808;2024-03-06T07:23:43;36.97;;;20.53;;
68870;SDS011;55906;52.278;6.808;2024-03-06T07:26:09;36.83;;;19.42;;
68870;SDS011;55906;52.278;6.808;2024-03-06T07:28:36;44.53;;;22.10;;
68870;SDS011;55906;52.278;6.808;2024-03-06T07:31:04;38.65;;;19.50;;
68870;SDS011;55906;52.278;6.808;2024-03-06T07:33:31;35.53;;;20.42;;
68870;SDS011;55906;52.278;6.808;2024-03-06T07:36:03;38.10;;;21.55;;
68870;SDS011;55906;52.278;6.808;2024-03-06T07:38:31;46.38;;;24.67;;
68870;SDS011;55906;52.278;6.808;2024-03-06T07:40:57;42.55;;;23.45;;
68870;SDS011;55906;52.278;6.808;2024-03-06T07:43:24;41.20;;;21.77;;
68870;SDS011;55906;52.278;6.808;2024-03-06T07:45:51;37.50;;;20.30;;
68870;SDS011;55906;52.278;6.808;2024-03-06T07:48:20;39.95;;;20.92;;
68870;SDS011;55906;52.278;6.808;2024-03-06T07:50:46;36.17;;;19.75;;
68870;SDS011;55906;52.278;6.808;2024-03-06T07:53:13;41.58;;;22.08;;
68870;SDS011;55906;52.278;6.808;2024-03-06T07:55:41;39.80;;;19.53;;
68870;SDS011;55906;52.278;6.808;2024-03-06T07:58:07;39.65;;;21.77;;
68870;SDS011;55906;52.278;6.808;2024-03-06T08:00:34;41.65;;;21.63;;
68870;SDS011;55906;52.278;6.808;2024-03-06T08:03:01;42.15;;;21.88;;
68870;SDS011;55906;52.278;6.808;2024-03-06T08:05:29;38.17;;;21.38;;
68870;SDS011;55906;52.278;6.808;2024-03-06T08:07:58;46.47;;;23.67;;
68870;SDS011;55906;52.278;6.808;2024-03-06T08:10:25;39.50;;;22.98;;
68870;SDS011;55906;52.278;6.808;2024-03-06T08:12:52;39.97;;;20.60;;
68870;SDS011;55906;52.278;6.808;2024-03-06T08:15:19;39.25;;;20.67;;
68870;SDS011;55906;52.278;6.808;2024-03-06T08:17:47;38.10;;;20.77;;
68870;SDS011;55906;52.278;6.808;2024-03-06T08:20:17;39.83;;;22.90;;
68870;SDS011;55906;52.278;6.808;2024-03-06T08:22:46;41.63;;;21.52;;
68870;SDS011;55906;52.278;6.808;2024-03-06T08:25:13;38.63;;;20.95;;
68870;SDS011;55906;52.278;6.808;2024-03-06T08:27:41;52.42;;;23.17;;
68870;SDS011;55906;52.278;6.808;2024-03-06T08:30:08;46.08;;;23.27;;
68870;SDS011;55906;52.278;6.808;2024-03-06T08:32:35;42.53;;;21.40;;
68870;SDS011;55906;52.278;6.808;2024-03-06T08:35:03;39.45;;;21.33;;
68870;SDS011;55906;52.278;6.808;2024-03-06T08:37:31;36.03;;;19.10;;
68870;SDS011;55906;52.278;6.808;2024-03-06T08:40:00;43.35;;;21.40;;
68870;SDS011;55906;52.278;6.808;2024-03-06T08:42:27;40.03;;;21.88;;
68870;SDS011;55906;52.278;6.808;2024-03-06T08:44:54;39.63;;;22.27;;
68870;SDS011;55906;52.278;6.808;2024-03-06T08:47:21;36.20;;;21.20;;
68870;SDS011;55906;52.278;6.808;2024-03-06T08:49:48;35.80;;;20.48;;
68870;SDS011;55906;52.278;6.808;2024-03-06T08:52:15;36.65;;;19.88;;
68870;SDS011;55906;52.278;6.808;2024-03-06T08:54:42;30.80;;;17.80;;
68870;SDS011;55906;52.278;6.808;2024-03-06T08:57:09;33.53;;;19.57;;
68870;SDS011;55906;52.278;6.808;2024-03-06T08:59:36;32.50;;;17.80;;
68870;SDS011;55906;52.278;6.808;2024-03-06T09:02:11;31.08;;;19.23;;
68870;SDS011;55906;52.278;6.808;2024-03-06T09:04:40;29.33;;;17.53;;
68870;SDS011;55906;52.278;6.808;2024-03-06T09:07:07;33.30;;;17.67;;
68870;SDS011;55906;52.278;6.808;2024-03-06T09:09:34;42.25;;;22.50;;
68870;SDS011;55906;52.278;6.808;2024-03-06T09:12:01;36.92;;;20.60;;
68870;SDS011;55906;52.278;6.808;2024-03-06T09:14:31;40.40;;;21.65;;
68870;SDS011;55906;52.278;6.808;2024-03-06T09:16:58;37.10;;;21.97;;
68870;SDS011;55906;52.278;6.808;2024-03-06T09:19:25;35.88;;;20.08;;
68870;SDS011;55906;52.278;6.808;2024-03-06T09:21:52;31.63;;;18.48;;
68870;SDS011;55906;52.278;6.808;2024-03-06T09:24:19;34.35;;;19.92;;
68870;SDS011;55906;52.278;6.808;2024-03-06T09:26:47;37.25;;;20.95;;
68870;SDS011;55906;52.278;6.808;2024-03-06T09:29:14;30.03;;;18.80;;
68870;SDS011;55906;52.278;6.808;2024-03-06T09:31:43;32.85;;;18.02;;
68870;SDS011;55906;52.278;6.808;2024-03-06T09:34:10;32.15;;;18.63;;
68870;SDS011;55906;52.278;6.808;2024-03-06T09:36:38;38.88;;;21.40;;
68870;SDS011;55906;52.278;6.808;2024-03-06T09:39:04;37.42;;;19.63;;
68870;SDS011;55906;52.278;6.808;2024-03-06T09:41:33;34.30;;;18.80;;
68870;SDS011;55906;52.278;6.808;2024-03-06T09:44:00;35.22;;;19.73;;
68870;SDS011;55906;52.278;6.808;2024-03-06T09:46:26;29.35;;;17.42;;
68870;SDS011;55906;52.278;6.808;2024-03-06T09:48:55;31.02;;;18.50;;
68870;SDS011;55906;52.278;6.808;2024-03-06T09:51:22;32.97;;;18.70;;
68870;SDS011;55906;52.278;6.808;2024-03-06T09:53:49;32.83;;;20.07;;
68870;SDS011;55906;52.278;6.808;2024-03-06T09:56:18;27.92;;;17.27;;
68870;SDS011;55906;52.278;6.808;2024-03-06T09:58:45;30.95;;;19.40;;
68870;SDS011;55906;52.278;6.808;2024-03-06T10:01:13;33.65;;;20.05;;
68870;SDS011;55906;52.278;6.808;2024-03-06T10:03:41;33.35;;;20.00;;
68870;SDS011;55906;52.278;6.808;2024-03-06T10:06:09;28.97;;;16.67;;
68870;SDS011;55906;52.278;6.808;2024-03-06T10:08:36;31.50;;;18.20;;
68870;SDS011;55906;52.278;6.808;2024-03-06T10:11:07;26.90;;;17.02;;
68870;SDS011;55906;52.278;6.808;2024-03-06T10:13:36;34.63;;;19.75;;
68870;SDS011;55906;52.278;6.808;2024-03-06T10:16:03;26.35;;;16.50;;
68870;SDS011;55906;52.278;6.808;2024-03-06T10:18:33;28.43;;;17.37;;
68870;SDS011;55906;52.278;6.808;2024-03-06T10:21:00;32.50;;;20.02;;
68870;SDS011;55906;52.278;6.808;2024-03-06T10:23:28;30.50;;;18.38;;
68870;SDS011;55906;52.278;6.808;2024-03-06T10:25:57;26.42;;;17.30;;
68870;SDS011;55906;52.278;6.808;2024-03-06T10:28:24;27.67;;;16.92;;
68870;SDS011;55906;52.278;6.808;2024-03-06T10:30:51;23.30;;;15.60;;
68870;SDS011;55906;52.278;6.808;2024-03-06T10:33:18;23.98;;;15.05;;
68870;SDS011;55906;52.278;6.808;2024-03-06T10:35:46;25.67;;;15.43;;
68870;SDS011;55906;52.278;6.808;2024-03-06T10:38:14;26.42;;;16.17;;
68870;SDS011;55906;52.278;6.808;2024-03-06T10:40:43;24.58;;;15.20;;
68870;SDS011;55906;52.278;6.808;2024-03-06T10:43:10;21.13;;;15.23;;
68870;SDS011;55906;52.278;6.808;2024-03-06T10:45:46;23.98;;;15.55;;
68870;SDS011;55906;52.278;6.808;2024-03-06T10:48:15;27.88;;;17.63;;
68870;SDS011;55906;52.278;6.808;2024-03-06T10:50:43;34.15;;;20.90;;
68870;SDS011;55906;52.278;6.808;2024-03-06T10:53:12;25.23;;;16.55;;
68870;SDS011;55906;52.278;6.808;2024-03-06T10:55:39;25.30;;;16.07;;
68870;SDS011;55906;52.278;6.808;2024-03-06T10:58:08;23.52;;;16.40;;
68870;SDS011;55906;52.278;6.808;2024-03-06T11:00:36;28.52;;;18.92;;
68870;SDS011;55906;52.278;6.808;2024-03-06T11:03:06;26.77;;;16.17;;
68870;SDS011;55906;52.278;6.808;2024-03-06T11:05:37;28.63;;;18.33;;
68870;SDS011;55906;52.278;6.808;2024-03-06T11:08:05;27.53;;;17.53;;
68870;SDS011;55906;52.278;6.808;2024-03-06T11:10:33;30.65;;;18.50;;
68870;SDS011;55906;52.278;6.808;2024-03-06T11:13:01;25.35;;;17.00;;
68870;SDS011;55906;52.278;6.808;2024-03-06T11:15:31;30.90;;;18.85;;
68870;SDS011;55906;52.278;6.808;2024-03-06T11:17:58;21.30;;;14.15;;
68870;SDS011;55906;52.278;6.808;2024-03-06T11:20:25;23.90;;;14.27;;
68870;SDS011;55906;52.278;6.808;2024-03-06T11:23:07;22.92;;;14.60;;
68870;SDS011;55906;52.278;6.808;2024-03-06T11:25:55;28.00;;;17.60;;
68870;SDS011;55906;52.278;6.808;2024-03-06T11:28:24;23.45;;;13.90;;
68870;SDS011;55906;52.278;6.808;2024-03-06T11:30:56;21.60;;;15.02;;
68870;SDS011;55906;52.278;6.808;2024-03-06T11:33:28;20.83;;;13.40;;
68870;SDS011;55906;52.278;6.808;2024-03-06T11:36:14;22.45;;;14.23;;
68870;SDS011;55906;52.278;6.808;2024-03-06T11:38:52;23.67;;;15.40;;
68870;SDS011;55906;52.278;6.808;2024-03-06T11:41:20;22.23;;;15.05;;
68870;SDS011;55906;52.278;6.808;2024-03-06T11:43:48;19.15;;;13.25;;
68870;SDS011;55906;52.278;6.808;2024-03-06T11:46:20;22.40;;;15.10;;
68870;SDS011;55906;52.278;6.808;2024-03-06T11:48:54;22.13;;;14.80;;
68870;SDS011;55906;52.278;6.808;2024-03-06T11:51:22;19.00;;;14.05;;
68870;SDS011;55906;52.278;6.808;2024-03-06T11:53:49;22.10;;;13.43;;
68870;SDS011;55906;52.278;6.808;2024-03-06T11:56:17;19.00;;;13.50;;
68870;SDS011;55906;52.278;6.808;2024-03-06T11:58:44;18.23;;;12.20;;
68870;SDS011;55906;52.278;6.808;2024-03-06T12:01:11;21.17;;;12.95;;
68870;SDS011;55906;52.278;6.808;2024-03-06T12:03:39;17.95;;;12.68;;
68870;SDS011;55906;52.278;6.808;2024-03-06T12:06:07;18.65;;;13.55;;
68870;SDS011;55906;52.278;6.808;2024-03-06T12:08:34;23.60;;;17.48;;
68870;SDS011;55906;52.278;6.808;2024-03-06T12:11:02;18.27;;;12.75;;
68870;SDS011;55906;52.278;6.808;2024-03-06T12:13:29;19.30;;;12.45;;
68870;SDS011;55906;52.278;6.808;2024-03-06T12:15:56;18.70;;;12.07;;
68870;SDS011;55906;52.278;6.808;2024-03-06T12:18:24;20.85;;;13.32;;
68870;SDS011;55906;52.278;6.808;2024-03-06T12:20:52;16.92;;;11.40;;
68870;SDS011;55906;52.278;6.808;2024-03-06T12:23:19;18.77;;;13.00;;
68870;SDS011;55906;52.278;6.808;2024-03-06T12:26:01;18.65;;;11.52;;
68870;SDS011;55906;52.278;6.808;2024-03-06T12:28:29;17.23;;;12.95;;
68870;SDS011;55906;52.278;6.808;2024-03-06T12:30:55;17.75;;;11.93;;
68870;SDS011;55906;52.278;6.808;2024-03-06T12:33:26;15.48;;;11.25;;
68870;SDS011;55906;52.278;6.808;2024-03-06T12:36:00;16.83;;;11.13;;
68870;SDS011;55906;52.278;6.808;2024-03-06T12:38:31;21.02;;;14.00;;
68870;SDS011;55906;52.278;6.808;2024-03-06T12:40:58;14.68;;;10.18;;
68870;SDS011;55906;52.278;6.808;2024-03-06T12:43:25;17.27;;;9.85;;
68870;SDS011;55906;52.278;6.808;2024-03-06T12:45:53;16.85;;;10.73;;
68870;SDS011;55906;52.278;6.808;2024-03-06T12:48:22;15.40;;;9.20;;
68870;SDS011;55906;52.278;6.808;2024-03-06T12:50:49;16.75;;;12.43;;
68870;SDS011;55906;52.278;6.808;2024-03-06T12:53:21;17.33;;;11.27;;
68870;SDS011;55906;52.278;6.808;2024-03-06T12:55:48;14.20;;;10.18;;
68870;SDS011;55906;52.278;6.808;2024-03-06T12:58:14;12.93;;;9.18;;
68870;SDS011;55906;52.278;6.808;2024-03-06T13:00:41;17.85;;;13.07;;
68870;SDS011;55906;52.278;6.808;2024-03-06T13:03:08;14.43;;;9.48;;
68870;SDS011;55906;52.278;6.808;2024-03-06T13:05:35;18.90;;;12.50;;
68870;SDS011;55906;52.278;6.808;2024-03-06T13:08:02;15.32;;;9.93;;
68870;SDS011;55906;52.278;6.808;2024-03-06T13:10:31;12.88;;;9.20;;
68870;SDS011;55906;52.278;6.808;2024-03-06T13:12:58;14.20;;;9.90;;
68870;SDS011;55906;52.278;6.808;2024-03-06T13:15:24;12.27;;;8.80;;
68870;SDS011;55906;52.278;6.808;2024-03-06T13:17:51;15.57;;;10.30;;
68870;SDS011;55906;52.278;6.808;2024-03-06T13:20:18;14.20;;;10.40;;
68870;SDS011;55906;52.278;6.808;2024-03-06T13:22:45;15.38;;;10.23;;
68870;SDS011;55906;52.278;6.808;2024-03-06T13:25:12;10.98;;;7.97;;
68870;SDS011;55906;52.278;6.808;2024-03-06T13:27:41;15.65;;;10.07;;
68870;SDS011;55906;52.278;6.808;2024-03-06T13:30:08;12.68;;;8.68;;
68870;SDS011;55906;52.278;6.808;2024-03-06T13:32:35;15.27;;;10.02;;
68870;SDS011;55906;52.278;6.808;2024-03-06T13:35:02;10.60;;;7.78;;
68870;SDS011;55906;52.278;6.808;2024-03-06T13:37:28;18.25;;;12.50;;
68870;SDS011;55906;52.278;6.808;2024-03-06T13:39:55;13.77;;;8.93;;
68870;SDS011;55906;52.278;6.808;2024-03-06T13:42:25;12.52;;;9.20;;
68870;SDS011;55906;52.278;6.808;2024-03-06T13:44:54;14.18;;;9.07;;
68870;SDS011;55906;52.278;6.808;2024-03-06T13:47:20;13.07;;;9.85;;
68870;SDS011;55906;52.278;6.808;2024-03-06T13:49:48;16.40;;;11.13;;
68870;SDS011;55906;52.278;6.808;2024-03-06T13:52:14;12.75;;;9.85;;
68870;SDS011;55906;52.278;6.808;2024-03-06T13:54:45;19.80;;;13.15;;
68870;SDS011;55906;52.278;6.808;2024-03-06T13:57:13;17.30;;;11.52;;
68870;SDS011;55906;52.278;6.808;2024-03-06T13:59:40;14.52;;;9.95;;
68870;SDS011;55906;52.278;6.808;2024-03-06T14:02:08;13.70;;;10.03;;
68870;SDS011;55906;52.278;6.808;2024-03-06T14:04:35;15.60;;;11.10;;
68870;SDS011;55906;52.278;6.808;2024-03-06T14:07:02;17.17;;;11.25;;
68870;SDS011;55906;52.278;6.808;2024-03-06T14:09:29;15.70;;;10.07;;
68870;SDS011;55906;52.278;6.808;2024-03-06T14:11:56;16.45;;;11.32;;
68870;SDS011;55906;52.278;6.808;2024-03-06T14:14:22;17.90;;;12.10;;
68870;SDS011;55906;52.278;6.808;2024-03-06T14:16:49;14.05;;;9.68;;
68870;SDS011;55906;52.278;6.808;2024-03-06T14:19:20;15.32;;;9.40;;
68870;SDS011;55906;52.278;6.808;2024-03-06T14:21:47;14.40;;;10.55;;
68870;SDS011;55906;52.278;6.808;2024-03-06T14:24:14;18.23;;;10.77;;
68870;SDS011;55906;52.278;6.808;2024-03-06T14:26:41;14.03;;;9.93;;
68870;SDS011;55906;52.278;6.808;2024-03-06T14:29:07;17.98;;;12.13;;